createdAt,value
2022-10-07T00:01:11.421Z,6.10
2022-10-07T00:03:40.561Z,5.80
2022-10-07T00:06:16.383Z,7.90
2022-10-07T00:08:47.926Z,8.50
2022-10-07T00:11:21.574Z,6.30
2022-10-07T00:13:53.071Z,7.50
2022-10-07T00:16:27.018Z,6.30
2022-10-07T00:18:57.878Z,7.60
2022-10-07T00:21:27.545Z,3.70
2022-10-07T00:23:56.163Z,5.40
2022-10-07T00:26:28.677Z,4.30
2022-10-07T00:28:57.669Z,5.40
2022-10-07T00:31:31.989Z,6.10
2022-10-07T00:34:00.207Z,4.20
2022-10-07T00:36:32.153Z,5.30
2022-10-07T00:39:03.079Z,4.10
2022-10-07T00:41:38.183Z,3.90
2022-10-07T00:44:37.450Z,9.10
2022-10-07T00:47:09.758Z,5.30
2022-10-07T00:49:45.524Z,7.80
2022-10-07T00:52:16.758Z,5.70
2022-10-07T00:54:45.580Z,5.80
2022-10-07T00:57:14.103Z,6.80
2022-10-07T00:59:42.278Z,4.90
2022-10-07T01:02:10.506Z,5.00
2022-10-07T01:04:39.360Z,7.70
2022-10-07T01:07:07.469Z,5.90
2022-10-07T01:09:35.791Z,4.60
2022-10-07T01:12:42.131Z,5.70
2022-10-07T01:15:33.218Z,3.80
2022-10-07T01:18:26.149Z,4.30
2022-10-07T01:21:00.962Z,5.10
2022-10-07T01:23:48.489Z,8.70
2022-10-07T01:26:45.399Z,6.10
2022-10-07T01:29:21.639Z,9.10
2022-10-07T01:32:08.322Z,7.20
2022-10-07T01:34:38.770Z,7.60
2022-10-07T01:37:09.986Z,8.40
2022-10-07T01:39:44.550Z,7.60
2022-10-07T01:42:12.657Z,6.20
2022-10-07T01:44:41.349Z,6.30
2022-10-07T01:47:09.506Z,4.40
2022-10-07T01:49:38.221Z,4.20
2022-10-07T01:52:41.258Z,8.50
2022-10-07T01:55:28.628Z,6.50
2022-10-07T01:58:06.472Z,5.30
2022-10-07T02:00:42.169Z,6.10
2022-10-07T02:03:43.263Z,4.80
2022-10-07T02:06:20.328Z,7.80
2022-10-07T02:08:55.237Z,6.30
2022-10-07T02:11:27.528Z,7.10
2022-10-07T02:14:22.795Z,5.70
2022-10-07T02:16:57.070Z,6.20
2022-10-07T02:19:31.251Z,6.40
2022-10-07T02:22:02.966Z,5.10
2022-10-07T02:24:35.650Z,3.70
2022-10-07T02:27:09.662Z,5.30
2022-10-07T02:29:47.341Z,9.30
2022-10-07T02:32:21.130Z,4.50
2022-10-07T02:35:00.919Z,7.60
2022-10-07T02:37:38.316Z,6.10
2022-10-07T02:40:12.614Z,5.90
2022-10-07T02:43:18.381Z,6.50
2022-10-07T02:46:04.341Z,5.00
2022-10-07T02:48:44.972Z,7.60
2022-10-07T02:51:21.281Z,4.90
2022-10-07T02:53:52.929Z,3.70
2022-10-07T02:56:24.664Z,3.70
2022-10-07T02:58:53.750Z,4.40
2022-10-07T03:01:29.462Z,5.30
2022-10-07T03:03:58.351Z,6.80
2022-10-07T03:06:29.740Z,7.70
2022-10-07T03:08:58.202Z,7.80
2022-10-07T03:11:26.333Z,5.40
2022-10-07T03:13:54.507Z,7.60
2022-10-07T03:16:22.764Z,7.70
2022-10-07T03:18:52.107Z,6.90
2022-10-07T03:21:20.318Z,6.00
2022-10-07T03:23:52.958Z,5.60
2022-10-07T03:26:21.839Z,5.60
2022-10-07T03:28:49.972Z,9.50
2022-10-07T03:31:18.106Z,8.20
2022-10-07T03:33:46.472Z,5.80
2022-10-07T03:36:14.684Z,4.40
2022-10-07T03:38:43.366Z,7.00
2022-10-07T03:41:11.889Z,5.80
2022-10-07T03:43:40.046Z,5.60
2022-10-07T03:46:08.120Z,5.30
2022-10-07T03:48:36.306Z,3.60
2022-10-07T03:51:04.545Z,7.80
2022-10-07T03:53:32.755Z,5.70
2022-10-07T03:56:01.082Z,6.20
2022-10-07T03:58:29.550Z,6.90
2022-10-07T04:01:05.737Z,6.80
2022-10-07T04:03:34.020Z,6.30
2022-10-07T04:06:03.866Z,8.30
2022-10-07T04:08:33.696Z,8.90
2022-10-07T04:13:30.517Z,7.90
2022-10-07T04:15:58.895Z,11.60
2022-10-07T04:18:26.938Z,5.20
2022-10-07T04:20:59.949Z,8.70
2022-10-07T04:23:28.559Z,7.40
2022-10-07T04:25:56.777Z,10.40
2022-10-07T04:28:46.078Z,10.20
2022-10-07T04:31:14.263Z,9.80
2022-10-07T04:33:42.706Z,8.20
2022-10-07T04:36:13.071Z,9.90
2022-10-07T04:38:42.789Z,10.20
2022-10-07T04:41:11.056Z,8.50
2022-10-07T04:43:39.245Z,11.00
2022-10-07T04:46:14.325Z,10.80
2022-10-07T04:48:46.150Z,8.80
2022-10-07T04:51:16.090Z,6.20
2022-10-07T04:53:44.640Z,10.50
2022-10-07T04:56:12.776Z,8.10
2022-10-07T04:58:40.892Z,6.90
2022-10-07T05:01:10.010Z,8.70
2022-10-07T05:03:39.818Z,8.90
2022-10-07T05:06:08.546Z,6.00
2022-10-07T05:08:36.769Z,10.10
2022-10-07T05:11:05.196Z,6.70
2022-10-07T05:13:34.418Z,8.50
2022-10-07T05:16:03.709Z,5.90
2022-10-07T05:18:33.487Z,7.70
2022-10-07T05:23:33.458Z,7.40
2022-10-07T05:26:08.081Z,5.70
2022-10-07T05:28:37.819Z,9.80
2022-10-07T05:31:13.848Z,6.30
2022-10-07T05:33:43.450Z,9.90
2022-10-07T05:36:12.288Z,12.50
2022-10-07T05:38:40.331Z,10.30
2022-10-07T05:41:11.154Z,8.10
2022-10-07T05:43:42.414Z,9.60
2022-10-07T05:46:12.622Z,10.90
2022-10-07T05:48:41.691Z,6.40
2022-10-07T05:51:09.765Z,9.80
2022-10-07T05:53:41.416Z,7.70
2022-10-07T05:56:12.735Z,9.70
2022-10-07T05:58:41.922Z,8.50
2022-10-07T06:01:15.643Z,8.30
2022-10-07T06:03:48.501Z,9.10
2022-10-07T06:06:17.385Z,6.80
2022-10-07T06:08:46.931Z,9.60
2022-10-07T06:11:35.254Z,7.00
2022-10-07T06:14:04.770Z,6.90
2022-10-07T06:16:32.928Z,7.60
2022-10-07T06:19:01.164Z,8.90
2022-10-07T06:21:29.327Z,7.70
2022-10-07T06:23:58.601Z,7.90
2022-10-07T06:26:27.283Z,11.20
2022-10-07T06:28:55.538Z,7.10
2022-10-07T06:31:25.730Z,8.20
2022-10-07T06:33:54.930Z,9.70
2022-10-07T06:36:23.321Z,7.30
2022-10-07T06:38:53.388Z,7.70
2022-10-07T06:41:22.805Z,6.10
2022-10-07T06:43:55.448Z,5.90
2022-10-07T06:46:23.772Z,8.30
2022-10-07T06:48:52.001Z,6.90
2022-10-07T06:51:21.648Z,7.70
2022-10-07T06:53:58.024Z,7.00
2022-10-07T06:56:26.422Z,8.00
2022-10-07T06:58:54.447Z,8.90
2022-10-07T07:01:23.636Z,7.20
2022-10-07T07:03:51.887Z,5.70
2022-10-07T07:06:19.911Z,8.10
2022-10-07T07:08:50.248Z,7.60
2022-10-07T07:11:37.209Z,8.00
2022-10-07T07:14:05.841Z,8.20
2022-10-07T07:16:35.035Z,7.70
2022-10-07T07:19:07.281Z,9.90
2022-10-07T07:21:38.282Z,7.70
2022-10-07T07:24:06.672Z,8.60
2022-10-07T07:26:34.888Z,7.50
2022-10-07T07:29:05.850Z,6.40
2022-10-07T07:31:36.928Z,7.50
2022-10-07T07:34:14.066Z,7.20
2022-10-07T07:36:48.176Z,6.50
2022-10-07T07:39:17.830Z,7.60
2022-10-07T07:41:51.078Z,7.20
2022-10-07T07:44:19.832Z,9.20
2022-10-07T07:46:51.336Z,7.70
2022-10-07T07:49:21.171Z,6.50
2022-10-07T07:51:49.904Z,8.20
2022-10-07T07:54:18.026Z,6.80
2022-10-07T07:56:46.119Z,5.10
2022-10-07T07:59:14.232Z,5.70
2022-10-07T08:01:45.357Z,5.90
2022-10-07T08:04:13.901Z,6.10
2022-10-07T08:06:42.257Z,6.50
2022-10-07T08:09:10.721Z,8.30
2022-10-07T08:11:41.392Z,6.50
2022-10-07T08:14:09.745Z,6.90
2022-10-07T08:16:38.243Z,6.70
2022-10-07T08:19:06.406Z,7.40
2022-10-07T08:21:34.581Z,7.30
2022-10-07T08:24:05.956Z,7.00
2022-10-07T08:26:35.477Z,6.90
2022-10-07T08:29:04.417Z,4.50
2022-10-07T08:31:33.512Z,8.70
2022-10-07T08:34:03.648Z,7.30
2022-10-07T08:36:34.061Z,7.10
2022-10-07T08:39:04.631Z,6.90
2022-10-07T08:41:38.973Z,7.60
2022-10-07T08:44:23.000Z,7.30
2022-10-07T08:47:15.658Z,4.80
2022-10-07T08:49:54.032Z,7.60
2022-10-07T08:52:28.579Z,7.00
2022-10-07T08:54:56.742Z,6.70
2022-10-07T08:57:34.612Z,6.90
2022-10-07T09:00:09.216Z,5.30
2022-10-07T09:03:07.584Z,9.10
2022-10-07T09:05:42.330Z,9.70
2022-10-07T09:08:29.111Z,10.40
2022-10-07T09:11:15.948Z,7.70
2022-10-07T09:13:52.822Z,11.40
2022-10-07T09:16:26.630Z,6.40
2022-10-07T09:18:59.109Z,8.70
2022-10-07T09:21:43.720Z,5.80
2022-10-07T09:24:31.242Z,10.90
2022-10-07T09:27:01.686Z,7.50
2022-10-07T09:29:31.022Z,6.20
2022-10-07T09:31:59.223Z,6.00
2022-10-07T09:34:29.914Z,5.50
2022-10-07T09:37:30.141Z,3.30
2022-10-07T09:40:21.581Z,6.70
2022-10-07T09:42:49.905Z,5.10
2022-10-07T09:45:23.030Z,4.90
2022-10-07T09:47:58.718Z,4.70
2022-10-07T09:50:37.211Z,7.00
2022-10-07T09:53:29.095Z,6.80
2022-10-07T09:55:57.203Z,7.60
2022-10-07T09:58:30.715Z,8.40
2022-10-07T10:01:10.243Z,5.00
2022-10-07T10:03:38.752Z,3.70
2022-10-07T10:06:12.273Z,7.20
2022-10-07T10:08:43.383Z,10.20
2022-10-07T10:11:20.519Z,6.70
2022-10-07T10:13:50.747Z,10.80
2022-10-07T10:16:24.750Z,9.00
2022-10-07T10:18:59.111Z,8.50
2022-10-07T10:21:30.773Z,7.90
2022-10-07T10:24:09.151Z,5.50
2022-10-07T10:27:26.619Z,4.90
2022-10-07T10:30:01.724Z,6.10
2022-10-07T10:33:07.906Z,9.20
2022-10-07T10:36:09.826Z,7.70
2022-10-07T10:38:50.660Z,5.30
2022-10-07T10:41:30.851Z,7.30
2022-10-07T10:44:25.230Z,5.30
2022-10-07T10:47:08.757Z,6.00
2022-10-07T10:49:42.843Z,5.50
2022-10-07T10:52:26.637Z,4.90
2022-10-07T10:55:31.293Z,7.00
2022-10-07T10:58:02.256Z,2.80
2022-10-07T11:00:59.923Z,3.50
2022-10-07T11:03:48.192Z,6.50
2022-10-07T11:06:19.097Z,3.90
2022-10-07T11:08:51.059Z,6.60
2022-10-07T11:11:22.533Z,4.30
2022-10-07T11:14:30.283Z,5.90
2022-10-07T11:18:15.780Z,6.60
2022-10-07T11:20:54.021Z,4.20
2022-10-07T11:23:29.394Z,6.20
2022-10-07T11:26:14.139Z,2.70
2022-10-07T11:28:45.027Z,5.40
2022-10-07T11:31:37.878Z,2.50
2022-10-07T11:34:15.385Z,6.30
2022-10-07T11:37:07.924Z,5.00
2022-10-07T11:39:39.695Z,4.90
2022-10-07T11:42:29.096Z,5.10
2022-10-07T11:45:05.060Z,3.00
2022-10-07T11:48:00.085Z,7.00
2022-10-07T11:50:37.221Z,4.60
2022-10-07T11:53:11.366Z,5.40
2022-10-07T11:55:57.433Z,4.70
2022-10-07T11:58:32.475Z,4.40
2022-10-07T12:01:25.694Z,5.60
2022-10-07T12:04:13.518Z,6.20
2022-10-07T12:07:19.542Z,4.50
2022-10-07T12:09:55.180Z,6.50
2022-10-07T12:12:26.818Z,5.50
2022-10-07T12:15:02.375Z,3.80
2022-10-07T12:17:31.695Z,6.80
2022-10-07T12:22:23.336Z,4.30
2022-10-07T12:24:17.612Z,6.10
2022-10-07T12:26:48.541Z,6.00
2022-10-07T12:30:24.179Z,6.10
2022-10-07T12:32:51.221Z,4.30
2022-10-07T12:35:35.503Z,4.60
2022-10-07T12:38:17.202Z,4.20
2022-10-07T12:41:23.577Z,6.10
2022-10-07T12:44:18.297Z,4.90
2022-10-07T12:47:31.406Z,5.40
2022-10-07T12:50:09.642Z,4.10
2022-10-07T12:52:46.661Z,3.90
2022-10-07T12:55:50.583Z,4.20
2022-10-07T12:59:07.823Z,6.00
2022-10-07T13:02:18.581Z,7.40
2022-10-07T13:09:55.024Z,5.40
2022-10-07T13:13:10.584Z,9.20
2022-10-07T13:21:23.087Z,13.40
2022-10-07T13:24:00.024Z,6.70
2022-10-07T13:26:42.217Z,11.40
2022-10-07T13:29:25.849Z,7.70
2022-10-07T13:32:19.535Z,7.30
2022-10-07T13:34:52.496Z,7.30
2022-10-07T13:37:46.447Z,8.20
2022-10-07T13:40:25.575Z,6.50
2022-10-07T13:44:17.290Z,6.20
2022-10-07T13:52:17.774Z,4.90
2022-10-07T13:54:53.305Z,9.30
2022-10-07T13:57:47.342Z,6.00
2022-10-07T14:00:32.385Z,4.30
2022-10-07T14:03:27.802Z,3.70
2022-10-07T14:08:37.193Z,11.60
2022-10-07T14:11:33.381Z,3.30
2022-10-07T14:18:37.700Z,5.50
2022-10-07T14:21:23.988Z,5.90
2022-10-07T14:23:52.193Z,6.10
2022-10-07T14:26:20.374Z,5.00
2022-10-07T14:28:58.412Z,4.20
2022-10-07T14:31:45.393Z,3.60
2022-10-07T14:34:40.472Z,4.00
2022-10-07T14:37:29.603Z,3.90
2022-10-07T14:40:05.494Z,8.20
2022-10-07T14:42:47.619Z,8.30
2022-10-07T14:45:18.189Z,5.70
2022-10-07T14:47:46.943Z,7.40
2022-10-07T14:50:23.092Z,7.30
2022-10-07T14:52:52.830Z,6.90
2022-10-07T14:55:30.916Z,6.20
2022-10-07T14:58:01.616Z,5.50
2022-10-07T15:00:32.929Z,4.80
2022-10-07T15:03:04.270Z,6.60
2022-10-07T15:05:33.783Z,6.00
2022-10-07T15:08:05.130Z,8.20
2022-10-07T15:10:33.431Z,10.50
2022-10-07T15:13:01.663Z,12.10
2022-10-07T15:15:29.696Z,15.40
2022-10-07T15:17:58.092Z,12.00
2022-10-07T15:20:26.979Z,8.40
2022-10-07T15:22:55.036Z,7.90
2022-10-07T15:25:23.187Z,8.60
2022-10-07T15:27:51.821Z,13.80
2022-10-07T15:30:20.063Z,13.80
2022-10-07T15:32:50.854Z,10.40
2022-10-07T15:35:18.967Z,9.80
2022-10-07T15:37:47.356Z,5.00
2022-10-07T15:40:15.494Z,5.90
2022-10-07T15:42:44.812Z,7.50
2022-10-07T15:45:13.498Z,10.20
2022-10-07T15:47:41.562Z,11.30
2022-10-07T15:50:09.937Z,12.60
2022-10-07T15:52:38.688Z,13.60
2022-10-07T15:55:08.008Z,7.50
2022-10-07T15:57:36.280Z,9.60
2022-10-07T16:00:05.149Z,4.70
2022-10-07T16:02:34.438Z,7.10
2022-10-07T16:05:02.442Z,10.50
2022-10-07T16:07:31.039Z,17.60
2022-10-07T16:09:59.123Z,17.80
2022-10-07T16:12:27.157Z,19.30
2022-10-07T16:14:55.227Z,19.50
2022-10-07T16:17:23.302Z,18.90
2022-10-07T16:19:51.293Z,19.90
2022-10-07T16:22:19.329Z,16.70
2022-10-07T16:24:47.352Z,13.60
2022-10-07T16:27:15.338Z,15.00
2022-10-07T16:30:01.805Z,16.00
2022-10-07T16:32:29.997Z,18.60
2022-10-07T16:34:58.017Z,18.20
2022-10-07T16:37:26.526Z,18.00
2022-10-07T16:39:56.389Z,24.40
2022-10-07T16:44:52.309Z,32.60
2022-10-07T16:47:20.436Z,34.10
2022-10-07T16:49:48.420Z,33.10
2022-10-07T16:52:16.474Z,36.90
2022-10-07T16:54:44.598Z,35.50
2022-10-07T16:57:13.292Z,38.20
2022-10-07T16:59:41.914Z,40.90
2022-10-07T17:02:10.660Z,47.70
2022-10-07T17:04:38.663Z,51.90
2022-10-07T17:07:07.409Z,50.50
2022-10-07T17:09:35.465Z,37.80
2022-10-07T17:12:06.965Z,39.00
2022-10-07T17:14:35.384Z,28.80
2022-10-07T17:17:05.276Z,28.30
2022-10-07T17:19:34.526Z,32.30
2022-10-07T17:22:04.180Z,34.60
2022-10-07T17:24:32.306Z,40.90
2022-10-07T17:27:00.472Z,43.40
2022-10-07T17:29:30.851Z,45.20
2022-10-07T17:31:58.845Z,45.10
2022-10-07T17:34:26.939Z,40.40
2022-10-07T17:36:54.930Z,40.90
2022-10-07T17:39:23.146Z,46.30
2022-10-07T17:41:51.244Z,46.30
2022-10-07T17:44:21.574Z,46.20
2022-10-07T17:46:50.481Z,59.60
2022-10-07T17:49:18.650Z,51.30
2022-10-07T17:51:46.708Z,45.60
2022-10-07T17:54:15.869Z,37.00
2022-10-07T17:56:48.001Z,31.60
2022-10-07T17:59:17.067Z,26.30
2022-10-07T18:01:45.287Z,25.80
2022-10-07T18:04:23.742Z,26.10
2022-10-07T18:06:53.145Z,22.60
2022-10-07T18:09:23.104Z,26.90
2022-10-07T18:12:09.731Z,31.70
2022-10-07T18:14:56.614Z,50.90
2022-10-07T18:17:24.934Z,79.80
2022-10-07T18:19:53.474Z,134.50
2022-10-07T18:22:21.971Z,158.90
2022-10-07T18:24:50.102Z,202.50
2022-10-07T18:27:18.318Z,198.30
2022-10-07T18:29:46.408Z,158.20
2022-10-07T18:32:14.374Z,95.90
2022-10-07T18:34:42.427Z,82.20
2022-10-07T18:37:10.767Z,54.00
2022-10-07T18:39:39.156Z,38.60
2022-10-07T18:42:07.273Z,27.60
2022-10-07T18:44:35.492Z,24.80
2022-10-07T18:47:03.726Z,18.50
2022-10-07T18:49:31.696Z,17.00
2022-10-07T18:52:00.816Z,14.60
2022-10-07T18:54:28.934Z,9.20
2022-10-07T18:56:56.992Z,13.60
2022-10-07T18:59:25.206Z,8.80
2022-10-07T19:01:53.455Z,8.90
2022-10-07T19:04:21.595Z,7.90
2022-10-07T19:06:49.701Z,9.90
2022-10-07T19:09:20.463Z,7.10
2022-10-07T19:11:49.612Z,7.90
2022-10-07T19:14:18.253Z,11.70
2022-10-07T19:16:51.744Z,8.30
2022-10-07T19:19:22.340Z,7.80
2022-10-07T19:21:53.144Z,7.70
2022-10-07T19:24:42.151Z,9.90
2022-10-07T19:27:10.181Z,9.20
2022-10-07T19:29:38.297Z,6.10
2022-10-07T19:32:08.678Z,5.80
2022-10-07T19:34:37.353Z,9.10
2022-10-07T19:37:06.263Z,7.30
2022-10-07T19:39:34.490Z,6.50
2022-10-07T19:42:02.608Z,7.00
2022-10-07T19:44:33.792Z,6.50
2022-10-07T19:47:02.610Z,7.10
2022-10-07T19:49:30.645Z,8.20
2022-10-07T19:51:58.610Z,9.50
2022-10-07T19:54:26.960Z,9.00
2022-10-07T19:56:55.100Z,8.10
2022-10-07T19:59:24.010Z,9.90
2022-10-07T20:01:52.134Z,8.80
2022-10-07T20:04:21.120Z,10.10
2022-10-07T20:06:49.330Z,9.00
2022-10-07T20:09:19.152Z,12.10
2022-10-07T20:11:47.670Z,13.40
2022-10-07T20:14:16.454Z,12.90
2022-10-07T20:16:44.727Z,12.50
2022-10-07T20:19:15.762Z,14.80
2022-10-07T20:21:44.455Z,13.20
2022-10-07T20:24:16.872Z,12.20
2022-10-07T20:26:45.291Z,12.00
2022-10-07T20:29:16.224Z,11.00
2022-10-07T20:31:45.094Z,7.90
2022-10-07T20:34:20.384Z,10.00
2022-10-07T20:36:50.516Z,8.70
2022-10-07T21:03:00.374Z,6.10
2022-10-07T21:05:31.016Z,6.20
2022-10-07T21:07:59.126Z,6.70
2022-10-07T21:10:35.437Z,7.90
2022-10-07T21:18:15.217Z,7.50
2022-10-07T21:20:57.599Z,6.60
2022-10-07T21:23:28.429Z,7.30
2022-10-07T21:26:05.364Z,8.80
2022-10-07T21:28:36.838Z,12.00
2022-10-07T21:31:13.190Z,6.20
2022-10-07T21:33:51.588Z,6.10
2022-10-07T21:36:28.422Z,7.80
2022-10-07T21:39:01.641Z,6.20
2022-10-07T21:41:38.805Z,8.80
2022-10-07T22:27:37.826Z,7.10
2022-10-07T23:02:51.946Z,9.50
2022-10-07T23:05:31.061Z,6.50
2022-10-07T23:12:31.510Z,8.00
